createdAt,value
2018-08-07T00:00:13.425Z,1006.46
2018-08-07T00:01:13.413Z,1006.45
2018-08-07T00:02:13.447Z,1006.44
2018-08-07T00:03:13.388Z,1006.45
2018-08-07T00:04:13.373Z,1006.41
2018-08-07T00:05:13.360Z,1006.41
2018-08-07T00:06:13.348Z,1006.34
2018-08-07T00:07:13.347Z,1006.39
2018-08-07T00:08:13.322Z,1006.37
2018-08-07T00:09:13.316Z,1006.38
2018-08-07T00:10:13.295Z,1006.36
2018-08-07T00:11:13.281Z,1006.37
2018-08-07T00:12:13.270Z,1006.36
2018-08-07T00:13:13.255Z,1006.31
2018-08-07T00:14:13.244Z,1006.35
2018-08-07T00:15:13.232Z,1006.31
2018-08-07T00:16:13.226Z,1006.33
2018-08-07T00:17:13.207Z,1006.31
2018-08-07T00:18:13.193Z,1006.28
2018-08-07T00:19:13.180Z,1006.29
2018-08-07T00:20:13.166Z,1006.27
2018-08-07T00:21:13.151Z,1006.28
2018-08-07T00:22:13.137Z,1006.25
2018-08-07T00:23:13.124Z,1006.25
2018-08-07T00:24:13.111Z,1006.25
2018-08-07T00:25:13.100Z,1006.23
2018-08-07T00:26:13.084Z,1006.25
2018-08-07T00:27:13.073Z,1006.24
2018-08-07T00:28:13.059Z,1006.22
2018-08-07T00:29:13.051Z,1006.21
2018-08-07T00:30:13.039Z,1006.19
2018-08-07T00:31:13.026Z,1006.21
2018-08-07T00:32:13.006Z,1006.21
2018-08-07T00:33:12.992Z,1006.16
2018-08-07T00:34:12.981Z,1006.16
2018-08-07T00:35:12.974Z,1006.20
2018-08-07T00:36:12.962Z,1006.17
2018-08-07T00:37:12.942Z,1006.18
2018-08-07T00:38:12.928Z,1006.16
2018-08-07T00:39:12.913Z,1006.19
2018-08-07T00:40:12.912Z,1006.18
2018-08-07T00:41:12.886Z,1006.17
2018-08-07T00:42:12.877Z,1006.17
2018-08-07T00:43:12.859Z,1006.17
2018-08-07T00:44:12.855Z,1006.15
2018-08-07T00:45:12.836Z,1006.13
2018-08-07T00:46:12.820Z,1006.14
2018-08-07T00:47:12.813Z,1006.15
2018-08-07T00:48:12.795Z,1006.17
2018-08-07T00:49:12.786Z,1006.15
2018-08-07T00:50:12.774Z,1006.11
2018-08-07T00:51:12.753Z,1006.10
2018-08-07T00:52:12.740Z,1006.09
2018-08-07T00:53:12.725Z,1006.08
2018-08-07T00:54:12.721Z,1006.08
2018-08-07T00:55:12.702Z,1006.04
2018-08-07T00:56:12.695Z,1006.05
2018-08-07T00:57:12.673Z,1006.00
2018-08-07T00:58:12.663Z,1006.01
2018-08-07T00:59:12.646Z,1006.02
2018-08-07T01:00:12.633Z,1005.99
2018-08-07T01:01:12.622Z,1005.99
2018-08-07T01:02:12.609Z,1005.99
2018-08-07T01:03:12.592Z,1005.99
2018-08-07T01:04:12.580Z,1006.00
2018-08-07T01:05:12.568Z,1005.99
2018-08-07T01:06:12.596Z,1005.99
2018-08-07T01:07:12.545Z,1005.96
2018-08-07T01:08:12.536Z,1005.97
2018-08-07T01:09:12.518Z,1005.96
2018-08-07T01:10:12.499Z,1005.94
2018-08-07T01:11:12.488Z,1005.94
2018-08-07T01:12:12.473Z,1005.91
2018-08-07T01:13:12.461Z,1005.92
2018-08-07T01:14:12.444Z,1005.91
2018-08-07T01:15:12.431Z,1005.87
2018-08-07T01:16:12.419Z,1005.87
2018-08-07T01:17:12.404Z,1005.85
2018-08-07T01:18:12.393Z,1005.83
2018-08-07T01:19:12.378Z,1005.84
2018-08-07T01:20:12.365Z,1005.82
2018-08-07T01:21:12.354Z,1005.80
2018-08-07T01:22:12.337Z,1005.84
2018-08-07T01:23:12.326Z,1005.87
2018-08-07T01:24:12.320Z,1005.83
2018-08-07T01:25:12.298Z,1005.80
2018-08-07T01:26:12.284Z,1005.85
2018-08-07T01:27:12.277Z,1005.80
2018-08-07T01:28:12.259Z,1005.83
2018-08-07T01:29:12.245Z,1005.86
2018-08-07T01:30:12.240Z,1005.83
2018-08-07T01:31:12.222Z,1005.84
2018-08-07T01:32:12.213Z,1005.84
2018-08-07T01:33:12.190Z,1005.82
2018-08-07T01:34:12.177Z,1005.83
2018-08-07T01:35:12.165Z,1005.78
2018-08-07T01:36:12.159Z,1005.77
2018-08-07T01:37:12.147Z,1005.76
2018-08-07T01:38:12.125Z,1005.73
2018-08-07T01:39:12.109Z,1005.75
2018-08-07T01:40:12.096Z,1005.75
2018-08-07T01:41:12.082Z,1005.75
2018-08-07T01:42:12.069Z,1005.76
2018-08-07T01:43:12.101Z,1005.77
2018-08-07T01:44:12.048Z,1005.73
2018-08-07T01:45:12.037Z,1005.73
2018-08-07T01:46:12.016Z,1005.68
2018-08-07T01:47:12.001Z,1005.67
2018-08-07T01:48:11.991Z,1005.71
2018-08-07T01:49:11.974Z,1005.69
2018-08-07T01:50:11.969Z,1005.67
2018-08-07T01:51:11.951Z,1005.67
2018-08-07T01:52:11.936Z,1005.67
2018-08-07T01:53:11.920Z,1005.65
2018-08-07T01:54:11.910Z,1005.61
2018-08-07T01:55:11.892Z,1005.65
2018-08-07T01:56:11.880Z,1005.63
2018-08-07T01:57:11.864Z,1005.63
2018-08-07T01:58:11.847Z,1005.62
2018-08-07T01:59:11.835Z,1005.59
2018-08-07T02:00:11.821Z,1005.56
2018-08-07T02:01:11.806Z,1005.62
2018-08-07T02:02:11.793Z,1005.58
2018-08-07T02:03:11.780Z,1005.59
2018-08-07T02:04:11.767Z,1005.62
2018-08-07T02:05:11.752Z,1005.64
2018-08-07T02:06:11.744Z,1005.64
2018-08-07T02:07:11.726Z,1005.64
2018-08-07T02:08:11.715Z,1005.67
2018-08-07T02:09:11.697Z,1005.65
2018-08-07T02:10:11.683Z,1005.66
2018-08-07T02:11:11.675Z,1005.65
2018-08-07T02:12:11.658Z,1005.65
2018-08-07T02:13:11.656Z,1005.62
2018-08-07T02:14:11.631Z,1005.61
2018-08-07T02:15:11.616Z,1005.55
2018-08-07T02:16:11.605Z,1005.62
2018-08-07T02:17:11.588Z,1005.58
2018-08-07T02:18:11.576Z,1005.58
2018-08-07T02:19:11.561Z,1005.57
2018-08-07T02:20:11.589Z,1005.59
2018-08-07T02:21:11.539Z,1005.61
2018-08-07T02:22:11.520Z,1005.59
2018-08-07T02:23:11.510Z,1005.61
2018-08-07T02:24:11.496Z,1005.60
2018-08-07T02:25:11.480Z,1005.58
2018-08-07T02:26:11.466Z,1005.58
2018-08-07T02:27:11.452Z,1005.57
2018-08-07T02:28:11.438Z,1005.53
2018-08-07T02:29:11.433Z,1005.53
2018-08-07T02:30:11.411Z,1005.49
2018-08-07T02:31:11.399Z,1005.50
2018-08-07T02:32:11.397Z,1005.54
2018-08-07T02:33:11.369Z,1005.53
2018-08-07T02:34:11.355Z,1005.56
2018-08-07T02:35:11.342Z,1005.53
2018-08-07T02:36:11.331Z,1005.54
2018-08-07T02:37:11.312Z,1005.54
2018-08-07T02:38:11.299Z,1005.54
2018-08-07T02:39:11.288Z,1005.45
2018-08-07T02:40:11.273Z,1005.42
2018-08-07T02:41:11.259Z,1005.42
2018-08-07T02:42:11.244Z,1005.38
2018-08-07T02:43:11.231Z,1005.35
2018-08-07T02:44:11.217Z,1005.37
2018-08-07T02:45:11.206Z,1005.35
2018-08-07T02:46:11.190Z,1005.33
2018-08-07T02:47:11.176Z,1005.34
2018-08-07T02:48:11.165Z,1005.33
2018-08-07T02:49:11.147Z,1005.33
2018-08-07T02:50:11.136Z,1005.33
2018-08-07T02:51:11.122Z,1005.32
2018-08-07T02:52:11.109Z,1005.32
2018-08-07T02:53:11.096Z,1005.34
2018-08-07T02:54:11.081Z,1005.31
2018-08-07T02:55:11.071Z,1005.30
2018-08-07T02:56:11.067Z,1005.29
2018-08-07T02:57:11.043Z,1005.25
2018-08-07T02:58:11.026Z,1005.23
2018-08-07T02:59:11.011Z,1005.25
2018-08-07T03:00:11.000Z,1005.21
2018-08-07T03:01:10.987Z,1005.20
2018-08-07T03:02:10.973Z,1005.22
2018-08-07T03:03:10.961Z,1005.20
2018-08-07T03:04:10.952Z,1005.18
2018-08-07T03:05:10.935Z,1005.17
2018-08-07T03:06:10.920Z,1005.20
2018-08-07T03:07:10.902Z,1005.17
2018-08-07T03:08:10.891Z,1005.22
2018-08-07T03:09:10.878Z,1005.23
2018-08-07T03:10:10.870Z,1005.22
2018-08-07T03:11:10.848Z,1005.20
2018-08-07T03:12:10.838Z,1005.18
2018-08-07T03:13:10.825Z,1005.20
2018-08-07T03:14:10.806Z,1005.25
2018-08-07T03:15:10.794Z,1005.20
2018-08-07T03:16:10.781Z,1005.18
2018-08-07T03:17:10.774Z,1005.19
2018-08-07T03:18:10.752Z,1005.18
2018-08-07T03:19:10.736Z,1005.19
2018-08-07T03:20:10.722Z,1005.22
2018-08-07T03:21:10.709Z,1005.18
2018-08-07T03:22:10.694Z,1005.24
2018-08-07T03:23:10.685Z,1005.24
2018-08-07T03:24:10.669Z,1005.25
2018-08-07T03:25:10.653Z,1005.28
2018-08-07T03:26:10.641Z,1005.27
2018-08-07T03:27:10.625Z,1005.29
2018-08-07T03:28:10.611Z,1005.30
2018-08-07T03:29:10.609Z,1005.32
2018-08-07T03:30:10.607Z,1005.34
2018-08-07T03:31:10.569Z,1005.37
2018-08-07T03:32:10.557Z,1005.36
2018-08-07T03:33:10.544Z,1005.31
2018-08-07T03:34:10.530Z,1005.31
2018-08-07T03:35:10.518Z,1005.31
2018-08-07T03:36:10.504Z,1005.32
2018-08-07T03:37:10.490Z,1005.31
2018-08-07T03:38:10.473Z,1005.29
2018-08-07T03:39:10.459Z,1005.27
2018-08-07T03:40:10.448Z,1005.28
2018-08-07T03:41:10.430Z,1005.24
2018-08-07T03:42:10.417Z,1005.26
2018-08-07T03:43:10.405Z,1005.28
2018-08-07T03:44:10.388Z,1005.27
2018-08-07T03:45:10.376Z,1005.26
2018-08-07T03:46:10.370Z,1005.23
2018-08-07T03:47:10.348Z,1005.25
2018-08-07T03:48:10.334Z,1005.25
2018-08-07T03:49:10.388Z,1005.29
2018-08-07T03:50:10.306Z,1005.28
2018-08-07T03:51:10.301Z,1005.29
2018-08-07T03:52:10.279Z,1005.32
2018-08-07T03:53:10.341Z,1005.29
2018-08-07T03:54:10.250Z,1005.26
2018-08-07T03:55:10.240Z,1005.31
2018-08-07T03:56:10.226Z,1005.27
2018-08-07T03:57:10.210Z,1005.29
2018-08-07T03:58:10.196Z,1005.26
2018-08-07T03:59:10.291Z,1005.26
2018-08-07T04:00:10.167Z,1005.27
2018-08-07T04:01:10.152Z,1005.24
2018-08-07T04:02:10.144Z,1005.25
2018-08-07T04:03:10.125Z,1005.26
2018-08-07T04:04:10.113Z,1005.26
2018-08-07T04:05:10.099Z,1005.29
2018-08-07T04:06:10.082Z,1005.29
2018-08-07T04:07:10.070Z,1005.30
2018-08-07T04:08:10.056Z,1005.33
2018-08-07T04:09:10.041Z,1005.30
2018-08-07T04:10:10.032Z,1005.32
2018-08-07T04:11:10.018Z,1005.34
2018-08-07T04:12:09.998Z,1005.31
2018-08-07T04:13:09.984Z,1005.32
2018-08-07T04:14:09.974Z,1005.32
2018-08-07T04:15:09.957Z,1005.31
2018-08-07T04:16:09.942Z,1005.33
2018-08-07T04:17:09.938Z,1005.33
2018-08-07T04:18:09.925Z,1005.31
2018-08-07T04:19:09.906Z,1005.34
2018-08-07T04:20:09.888Z,1005.33
2018-08-07T04:21:09.877Z,1005.31
2018-08-07T04:22:09.858Z,1005.32
2018-08-07T04:23:09.854Z,1005.40
2018-08-07T04:24:09.832Z,1005.41
2018-08-07T04:25:09.818Z,1005.46
2018-08-07T04:26:09.817Z,1005.45
2018-08-07T04:27:09.791Z,1005.46
2018-08-07T04:28:09.785Z,1005.42
2018-08-07T04:29:09.761Z,1005.41
2018-08-07T04:30:09.746Z,1005.38
2018-08-07T04:31:09.735Z,1005.38
2018-08-07T04:32:09.720Z,1005.37
2018-08-07T04:33:09.706Z,1005.44
2018-08-07T04:34:09.688Z,1005.35
2018-08-07T04:35:09.676Z,1005.38
2018-08-07T04:36:09.663Z,1005.38
2018-08-07T04:37:09.655Z,1005.39
2018-08-07T04:38:09.633Z,1005.40
2018-08-07T04:39:09.628Z,1005.39
2018-08-07T04:40:09.610Z,1005.35
2018-08-07T04:41:09.590Z,1005.34
2018-08-07T04:42:09.580Z,1005.34
2018-08-07T04:43:09.562Z,1005.39
2018-08-07T04:44:09.549Z,1005.31
2018-08-07T04:45:09.534Z,1005.32
2018-08-07T04:46:09.523Z,1005.30
2018-08-07T04:47:09.514Z,1005.30
2018-08-07T04:48:09.492Z,1005.32
2018-08-07T04:49:09.478Z,1005.32
2018-08-07T04:50:09.467Z,1005.35
2018-08-07T04:51:09.448Z,1005.32
2018-08-07T04:52:09.433Z,1005.31
2018-08-07T04:53:09.419Z,1005.32
2018-08-07T04:54:09.408Z,1005.30
2018-08-07T04:55:09.394Z,1005.33
2018-08-07T04:56:09.377Z,1005.33
2018-08-07T04:57:09.370Z,1005.32
2018-08-07T04:58:09.496Z,1005.33
2018-08-07T04:59:09.333Z,1005.35
2018-08-07T05:00:09.321Z,1005.35
2018-08-07T05:01:09.305Z,1005.36
2018-08-07T05:02:09.291Z,1005.35
2018-08-07T05:03:09.277Z,1005.35
2018-08-07T05:04:09.267Z,1005.37
2018-08-07T05:05:09.248Z,1005.37
2018-08-07T05:06:09.235Z,1005.36
2018-08-07T05:07:09.224Z,1005.36
2018-08-07T05:08:09.207Z,1005.37
2018-08-07T05:09:09.206Z,1005.33
2018-08-07T05:10:09.180Z,1005.38
2018-08-07T05:11:09.167Z,1005.37
2018-08-07T05:12:09.153Z,1005.36
2018-08-07T05:13:09.135Z,1005.37
2018-08-07T05:14:09.136Z,1005.37
2018-08-07T05:15:09.107Z,1005.38
2018-08-07T05:16:09.092Z,1005.38
2018-08-07T05:17:09.078Z,1005.40
2018-08-07T05:18:09.063Z,1005.39
2018-08-07T05:19:09.050Z,1005.41
2018-08-07T05:20:09.036Z,1005.40
2018-08-07T05:21:09.021Z,1005.39
2018-08-07T05:22:09.016Z,1005.40
2018-08-07T05:23:08.992Z,1005.39
2018-08-07T05:24:08.978Z,1005.40
2018-08-07T05:25:08.962Z,1005.43
2018-08-07T05:26:08.949Z,1005.42
2018-08-07T05:27:08.936Z,1005.38
2018-08-07T05:28:08.920Z,1005.41
2018-08-07T05:29:08.917Z,1005.39
2018-08-07T05:30:08.915Z,1005.41
2018-08-07T05:31:08.879Z,1005.41
2018-08-07T05:32:08.866Z,1005.39
2018-08-07T05:33:08.853Z,1005.40
2018-08-07T05:34:08.835Z,1005.43
2018-08-07T05:35:08.822Z,1005.44
2018-08-07T05:36:08.814Z,1005.45
2018-08-07T05:37:08.794Z,1005.46
2018-08-07T05:38:08.782Z,1005.43
2018-08-07T05:39:08.767Z,1005.46
2018-08-07T05:40:08.762Z,1005.45
2018-08-07T05:41:08.750Z,1005.46
2018-08-07T05:42:08.728Z,1005.46
2018-08-07T05:43:08.733Z,1005.45
2018-08-07T05:44:08.696Z,1005.42
2018-08-07T05:45:08.685Z,1005.46
2018-08-07T05:46:08.669Z,1005.45
2018-08-07T05:47:08.657Z,1005.44
2018-08-07T05:48:08.644Z,1005.47
2018-08-07T05:49:08.626Z,1005.46
2018-08-07T05:50:08.672Z,1005.47
2018-08-07T05:51:09.018Z,1005.48
2018-08-07T05:52:08.585Z,1005.50
2018-08-07T05:53:08.572Z,1005.49
2018-08-07T05:54:08.558Z,1005.52
2018-08-07T05:55:08.580Z,1005.50
2018-08-07T05:56:08.535Z,1005.50
2018-08-07T05:57:08.521Z,1005.52
2018-08-07T05:58:08.503Z,1005.52
2018-08-07T05:59:08.489Z,1005.53
2018-08-07T06:00:08.476Z,1005.54
2018-08-07T06:01:08.464Z,1005.52
2018-08-07T06:02:08.447Z,1005.54
2018-08-07T06:03:08.435Z,1005.49
2018-08-07T06:04:08.423Z,1005.50
2018-08-07T06:05:08.407Z,1005.49
2018-08-07T06:06:08.397Z,1005.49
2018-08-07T06:07:08.387Z,1005.49
2018-08-07T06:08:08.365Z,1005.48
2018-08-07T06:09:08.354Z,1005.51
2018-08-07T06:10:08.343Z,1005.52
2018-08-07T06:11:08.329Z,1005.49
2018-08-07T06:12:08.313Z,1005.48
2018-08-07T06:13:08.298Z,1005.48
2018-08-07T06:14:08.289Z,1005.49
2018-08-07T06:15:08.271Z,1005.51
2018-08-07T06:16:08.261Z,1005.51
2018-08-07T06:17:08.246Z,1005.51
2018-08-07T06:18:08.230Z,1005.54
2018-08-07T06:19:08.237Z,1005.53
2018-08-07T06:20:08.204Z,1005.53
2018-08-07T06:21:08.190Z,1005.57
2018-08-07T06:22:08.177Z,1005.53
2018-08-07T06:23:08.166Z,1005.56
2018-08-07T06:24:08.154Z,1005.56
2018-08-07T06:25:08.140Z,1005.55
2018-08-07T06:26:08.126Z,1005.58
2018-08-07T06:27:08.111Z,1005.57
2018-08-07T06:28:08.107Z,1005.55
2018-08-07T06:29:08.082Z,1005.59
2018-08-07T06:30:08.070Z,1005.59
2018-08-07T06:31:08.055Z,1005.57
2018-08-07T06:32:08.044Z,1005.58
2018-08-07T06:33:08.031Z,1005.59
2018-08-07T06:34:08.019Z,1005.56
2018-08-07T06:35:08.002Z,1005.55
2018-08-07T06:36:07.994Z,1005.54
2018-08-07T06:37:07.979Z,1005.54
2018-08-07T06:38:07.968Z,1005.57
2018-08-07T06:39:07.955Z,1005.56
2018-08-07T06:40:07.941Z,1005.60
2018-08-07T06:41:07.925Z,1005.57
2018-08-07T06:42:07.913Z,1005.61
2018-08-07T06:43:07.900Z,1005.56
2018-08-07T06:44:07.885Z,1005.58
2018-08-07T06:45:07.875Z,1005.59
2018-08-07T06:46:07.859Z,1005.58
2018-08-07T06:47:07.846Z,1005.59
2018-08-07T06:48:07.881Z,1005.57
2018-08-07T06:49:07.819Z,1005.60
2018-08-07T06:50:07.818Z,1005.60
2018-08-07T06:51:07.797Z,1005.57
2018-08-07T06:52:07.782Z,1005.56
2018-08-07T06:53:07.768Z,1005.56
2018-08-07T06:54:07.761Z,1005.56
2018-08-07T06:55:07.741Z,1005.55
2018-08-07T06:56:07.728Z,1005.53
2018-08-07T06:57:07.721Z,1005.50
2018-08-07T06:58:07.704Z,1005.48
2018-08-07T06:59:07.689Z,1005.53
2018-08-07T07:00:07.681Z,1005.47
2018-08-07T07:01:07.662Z,1005.49
2018-08-07T07:02:07.652Z,1005.54
2018-08-07T07:03:07.636Z,1005.51
2018-08-07T07:04:07.625Z,1005.51
2018-08-07T07:05:07.615Z,1005.50
2018-08-07T07:06:07.604Z,1005.47
2018-08-07T07:07:07.590Z,1005.48
2018-08-07T07:08:07.575Z,1005.47
2018-08-07T07:09:07.565Z,1005.48
2018-08-07T07:10:07.551Z,1005.45
2018-08-07T07:11:07.536Z,1005.42
2018-08-07T07:12:07.522Z,1005.44
2018-08-07T07:13:07.511Z,1005.49
2018-08-07T07:14:07.497Z,1005.49
2018-08-07T07:15:07.484Z,1005.46
2018-08-07T07:16:07.475Z,1005.48
2018-08-07T07:17:07.460Z,1005.49
2018-08-07T07:18:07.449Z,1005.49
2018-08-07T07:19:07.433Z,1005.52
2018-08-07T07:20:07.431Z,1005.51
2018-08-07T07:21:07.414Z,1005.51
2018-08-07T07:22:07.397Z,1005.47
2018-08-07T07:23:07.387Z,1005.50
2018-08-07T07:24:07.372Z,1005.51
2018-08-07T07:25:07.357Z,1005.49
2018-08-07T07:26:07.346Z,1005.47
2018-08-07T07:27:07.334Z,1005.49
2018-08-07T07:28:07.321Z,1005.49
2018-08-07T07:29:07.315Z,1005.48
2018-08-07T07:30:07.299Z,1005.42
2018-08-07T07:31:07.283Z,1005.45
2018-08-07T07:32:07.276Z,1005.43
2018-08-07T07:33:07.257Z,1005.44
2018-08-07T07:34:07.259Z,1005.42
2018-08-07T07:35:07.237Z,1005.45
2018-08-07T07:36:07.229Z,1005.41
2018-08-07T07:37:07.211Z,1005.46
2018-08-07T07:38:07.199Z,1005.45
2018-08-07T07:39:07.190Z,1005.46
2018-08-07T07:40:07.174Z,1005.46
2018-08-07T07:41:07.166Z,1005.47
2018-08-07T07:42:07.154Z,1005.46
2018-08-07T07:43:07.138Z,1005.46
2018-08-07T07:44:07.127Z,1005.44
2018-08-07T07:45:07.112Z,1005.41
2018-08-07T07:46:07.120Z,1005.41
2018-08-07T07:47:07.190Z,1005.40
2018-08-07T07:48:07.087Z,1005.40
2018-08-07T07:49:07.063Z,1005.41
2018-08-07T07:50:07.050Z,1005.38
2018-08-07T07:51:07.039Z,1005.38
2018-08-07T07:52:07.028Z,1005.40
2018-08-07T07:53:07.014Z,1005.36
2018-08-07T07:54:07.065Z,1005.38
2018-08-07T07:55:06.992Z,1005.36
2018-08-07T07:56:06.980Z,1005.33
2018-08-07T07:57:06.968Z,1005.34
2018-08-07T07:58:06.956Z,1005.34
2018-08-07T07:59:06.950Z,1005.33
2018-08-07T08:00:06.935Z,1005.35
2018-08-07T08:01:06.922Z,1005.34
2018-08-07T08:02:06.908Z,1005.32
2018-08-07T08:03:06.899Z,1005.31
2018-08-07T08:04:06.887Z,1005.32
2018-08-07T08:05:06.922Z,1005.30
2018-08-07T08:06:06.932Z,1005.32
2018-08-07T08:07:06.855Z,1005.32
2018-08-07T08:08:06.843Z,1005.30
2018-08-07T08:09:06.837Z,1005.28
2018-08-07T08:10:06.820Z,1005.31
2018-08-07T08:11:06.832Z,1005.30
2018-08-07T08:12:06.800Z,1005.29
2018-08-07T08:13:06.784Z,1005.30
2018-08-07T08:14:06.775Z,1005.32
2018-08-07T08:15:06.764Z,1005.29
2018-08-07T08:16:06.757Z,1005.29
2018-08-07T08:17:06.740Z,1005.28
2018-08-07T08:18:06.731Z,1005.30
2018-08-07T08:19:06.720Z,1005.35
2018-08-07T08:20:06.712Z,1005.34
2018-08-07T08:21:06.697Z,1005.34
2018-08-07T08:22:06.694Z,1005.33
2018-08-07T08:23:06.674Z,1005.31
2018-08-07T08:24:06.665Z,1005.31
2018-08-07T08:25:06.653Z,1005.36
2018-08-07T08:26:06.644Z,1005.35
2018-08-07T08:27:06.631Z,1005.36
2018-08-07T08:28:06.626Z,1005.38
2018-08-07T08:29:06.653Z,1005.38
2018-08-07T08:30:06.735Z,1005.35
2018-08-07T08:31:06.594Z,1005.37
2018-08-07T08:32:06.578Z,1005.33
2018-08-07T08:33:06.579Z,1005.34
2018-08-07T08:34:06.556Z,1005.35
2018-08-07T08:35:06.613Z,1005.34
2018-08-07T08:36:06.536Z,1005.36
2018-08-07T08:37:06.525Z,1005.34
2018-08-07T08:38:06.514Z,1005.34
2018-08-07T08:39:06.503Z,1005.32
2018-08-07T08:40:06.493Z,1005.33
2018-08-07T08:41:06.492Z,1005.28
2018-08-07T08:42:06.480Z,1005.29
2018-08-07T08:43:06.471Z,1005.29
2018-08-07T08:44:06.451Z,1005.27
2018-08-07T08:45:06.440Z,1005.28
2018-08-07T08:46:06.430Z,1005.26
2018-08-07T08:47:06.420Z,1005.24
2018-08-07T08:48:06.412Z,1005.26
2018-08-07T08:49:06.401Z,1005.25
2018-08-07T08:50:06.398Z,1005.23
2018-08-07T08:51:06.385Z,1005.25
2018-08-07T08:52:06.371Z,1005.22
2018-08-07T08:53:06.370Z,1005.23
2018-08-07T08:54:06.377Z,1005.22
2018-08-07T08:55:06.345Z,1005.20
2018-08-07T08:56:06.331Z,1005.18
2018-08-07T08:57:06.323Z,1005.18
2018-08-07T08:58:06.309Z,1005.16
2018-08-07T08:59:06.303Z,1005.12
2018-08-07T09:00:06.292Z,1005.10
2018-08-07T09:01:06.281Z,1005.08
2018-08-07T09:02:06.270Z,1005.07
2018-08-07T09:03:06.260Z,1005.04
2018-08-07T09:04:06.252Z,1005.03
2018-08-07T09:05:06.246Z,1005.04
2018-08-07T09:06:06.233Z,1005.00
2018-08-07T09:07:06.221Z,1005.02
2018-08-07T09:08:06.228Z,1005.00
2018-08-07T09:09:06.200Z,1004.98
2018-08-07T09:10:06.193Z,1004.98
2018-08-07T09:11:06.184Z,1004.97
2018-08-07T09:12:06.178Z,1004.98
2018-08-07T09:13:06.163Z,1004.97
2018-08-07T09:14:06.152Z,1004.95
2018-08-07T09:15:06.144Z,1004.95
2018-08-07T09:16:06.139Z,1004.97
2018-08-07T09:17:06.130Z,1004.90
2018-08-07T09:18:06.139Z,1004.89
2018-08-07T09:19:06.106Z,1004.91
2018-08-07T09:20:06.101Z,1004.88
2018-08-07T09:21:06.091Z,1004.90
2018-08-07T09:22:06.084Z,1004.90
2018-08-07T09:23:06.077Z,1004.89
2018-08-07T09:24:06.062Z,1004.87
2018-08-07T09:25:06.055Z,1004.87
2018-08-07T09:26:06.094Z,1004.86
2018-08-07T09:27:06.032Z,1004.87
2018-08-07T09:28:06.023Z,1004.82
2018-08-07T09:29:06.047Z,1004.81
2018-08-07T09:30:06.010Z,1004.81
2018-08-07T09:31:06.001Z,1004.80
2018-08-07T09:32:05.989Z,1004.80
2018-08-07T09:33:06.086Z,1004.76
2018-08-07T09:34:05.975Z,1004.77
2018-08-07T09:35:05.961Z,1004.71
2018-08-07T09:36:05.949Z,1004.67
2018-08-07T09:37:05.939Z,1004.69
2018-08-07T09:38:05.940Z,1004.72
2018-08-07T09:39:05.920Z,1004.71
2018-08-07T09:40:05.921Z,1004.68
2018-08-07T09:41:05.904Z,1004.68
2018-08-07T09:42:05.905Z,1004.68
2018-08-07T09:43:05.885Z,1004.66
2018-08-07T09:44:05.877Z,1004.66
2018-08-07T09:45:05.868Z,1004.65
2018-08-07T09:46:05.875Z,1004.65
2018-08-07T09:47:05.849Z,1004.63
2018-08-07T09:48:05.845Z,1004.61
2018-08-07T09:49:05.835Z,1004.59
2018-08-07T09:50:05.821Z,1004.55
2018-08-07T09:51:05.815Z,1004.58
2018-08-07T09:52:05.815Z,1004.59
2018-08-07T09:53:05.805Z,1004.57
2018-08-07T09:54:05.788Z,1004.57
2018-08-07T09:55:05.782Z,1004.59
2018-08-07T09:56:05.773Z,1004.61
2018-08-07T09:57:05.769Z,1004.56
2018-08-07T09:58:05.751Z,1004.57
2018-08-07T09:59:05.744Z,1004.57
2018-08-07T10:00:05.759Z,1004.56
2018-08-07T10:01:05.728Z,1004.54
2018-08-07T10:02:05.720Z,1004.54
2018-08-07T10:03:05.708Z,1004.58
2018-08-07T10:04:05.703Z,1004.56
2018-08-07T10:05:05.759Z,1004.54
2018-08-07T10:06:05.685Z,1004.51
2018-08-07T10:07:05.676Z,1004.52
2018-08-07T10:08:05.666Z,1004.51
2018-08-07T10:09:05.655Z,1004.52
2018-08-07T10:10:05.648Z,1004.50
2018-08-07T10:11:05.641Z,1004.47
2018-08-07T10:12:05.639Z,1004.48
2018-08-07T10:13:05.622Z,1004.49
2018-08-07T10:14:05.617Z,1004.45
2018-08-07T10:15:05.606Z,1004.41
2018-08-07T10:16:05.598Z,1004.39
2018-08-07T10:17:05.594Z,1004.37
2018-08-07T10:18:05.581Z,1004.35
2018-08-07T10:19:05.574Z,1004.32
2018-08-07T10:20:05.565Z,1004.31
2018-08-07T10:21:05.555Z,1004.32
2018-08-07T10:22:05.549Z,1004.33
2018-08-07T10:23:05.538Z,1004.33
2018-08-07T10:24:05.542Z,1004.30
2018-08-07T10:25:05.529Z,1004.31
2018-08-07T10:26:05.515Z,1004.27
2018-08-07T10:27:05.507Z,1004.24
2018-08-07T10:28:05.499Z,1004.27
2018-08-07T10:29:05.490Z,1004.31
2018-08-07T10:30:05.487Z,1004.25
2018-08-07T10:31:05.478Z,1004.23
2018-08-07T10:32:05.475Z,1004.20
2018-08-07T10:33:05.456Z,1004.20
2018-08-07T10:34:05.449Z,1004.20
2018-08-07T10:35:05.472Z,1004.19
2018-08-07T10:36:05.432Z,1004.16
2018-08-07T10:37:05.427Z,1004.16
2018-08-07T10:38:05.434Z,1004.15
2018-08-07T10:39:05.411Z,1004.12
2018-08-07T10:40:05.404Z,1004.09
2018-08-07T10:41:05.486Z,1004.09
2018-08-07T10:42:05.384Z,1004.12
2018-08-07T10:43:05.454Z,1004.05
2018-08-07T10:44:05.414Z,1004.07
2018-08-07T10:45:05.361Z,1004.09
2018-08-07T10:46:05.352Z,1004.08
2018-08-07T10:47:05.350Z,1004.06
2018-08-07T10:48:05.344Z,1004.08
2018-08-07T10:49:05.329Z,1004.02
2018-08-07T10:50:05.321Z,1004.02
2018-08-07T10:51:05.317Z,1003.96
2018-08-07T10:52:05.315Z,1003.98
2018-08-07T10:53:05.298Z,1003.99
2018-08-07T10:54:05.291Z,1003.96
2018-08-07T10:55:05.288Z,1003.93
2018-08-07T10:56:05.277Z,1003.92
2018-08-07T10:57:05.268Z,1003.93
2018-08-07T10:58:05.258Z,1003.91
2018-08-07T10:59:05.251Z,1003.87
2018-08-07T11:00:05.253Z,1003.85
2018-08-07T11:01:05.238Z,1003.85
2018-08-07T11:02:05.233Z,1003.74
2018-08-07T11:03:05.223Z,1003.82
2018-08-07T11:04:05.212Z,1003.86
2018-08-07T11:05:05.208Z,1003.90
2018-08-07T11:06:05.199Z,1003.91
2018-08-07T11:07:05.189Z,1003.91
2018-08-07T11:08:05.195Z,1003.87
2018-08-07T11:09:05.173Z,1003.86
2018-08-07T11:10:05.167Z,1003.81
2018-08-07T11:11:05.158Z,1003.81
2018-08-07T11:12:05.151Z,1003.83
2018-08-07T11:13:05.143Z,1003.81
2018-08-07T11:14:05.135Z,1003.78
2018-08-07T11:15:05.135Z,1003.82
2018-08-07T11:16:05.120Z,1003.84
2018-08-07T11:17:05.124Z,1003.82
2018-08-07T11:18:05.105Z,1003.81
2018-08-07T11:19:05.114Z,1003.79
2018-08-07T11:20:05.098Z,1003.76
2018-08-07T11:21:05.082Z,1003.75
2018-08-07T11:22:05.079Z,1003.72
2018-08-07T11:23:05.070Z,1003.74
2018-08-07T11:24:05.061Z,1003.78
2018-08-07T11:25:05.055Z,1003.72
2018-08-07T11:26:05.051Z,1003.72
2018-08-07T11:27:05.047Z,1003.74
2018-08-07T11:28:05.044Z,1003.72
2018-08-07T11:29:05.024Z,1003.71
2018-08-07T11:30:05.056Z,1003.73
2018-08-07T11:31:05.015Z,1003.69
2018-08-07T11:32:05.001Z,1003.72
2018-08-07T11:33:04.996Z,1003.65
2018-08-07T11:34:04.986Z,1003.64
2018-08-07T11:35:04.982Z,1003.66
2018-08-07T11:36:05.026Z,1003.63
2018-08-07T11:37:04.969Z,1003.63
2018-08-07T11:38:04.955Z,1003.62
2018-08-07T11:39:04.947Z,1003.61
2018-08-07T11:40:04.959Z,1003.57
2018-08-07T11:41:04.939Z,1003.52
2018-08-07T11:42:04.930Z,1003.47
2018-08-07T11:43:04.922Z,1003.36
2018-08-07T11:44:04.915Z,1003.31
2018-08-07T11:45:04.909Z,1003.46
2018-08-07T11:46:04.905Z,1003.49
2018-08-07T11:47:04.893Z,1003.48
2018-08-07T11:48:05.004Z,1003.44
2018-08-07T11:49:04.877Z,1003.47
2018-08-07T11:50:04.871Z,1003.50
2018-08-07T11:51:04.863Z,1003.46
2018-08-07T11:52:04.854Z,1003.43
2018-08-07T11:53:04.848Z,1003.44
2018-08-07T11:54:04.842Z,1003.43
2018-08-07T11:55:04.835Z,1003.46
2018-08-07T11:56:04.826Z,1003.41
2018-08-07T11:57:04.819Z,1003.38
2018-08-07T11:58:04.817Z,1003.41
2018-08-07T11:59:04.804Z,1003.42
2018-08-07T12:00:04.798Z,1003.38
2018-08-07T12:01:04.801Z,1003.36
2018-08-07T12:02:04.784Z,1003.35
2018-08-07T12:03:04.780Z,1003.37
2018-08-07T12:04:04.773Z,1003.32
2018-08-07T12:05:04.762Z,1003.34